KDYS/DYS METAR and TAF weather

Enter ICAO airport designator
Station Type Date Time Source
KDYS METAR 2018/12/13 17:56 UTC NOAA

KDYS 131756Z 35017G21KT 7SM -RA OVC007 OVC010 06/01 A2982 RMK AO2A SLPNO ALSTG ESTMD 60002 PNO $


Station Type Date Time Source
KDYS Decoded METAR 2018/12/13 17:56 UTC NOAA

Abilene, Dyess Air Force Base, TX, United States (KDYS) 32-25-12N 099-51-25W
Dec 13, 2018 - 12:56 PM EST / 2018.12.13 1756 UTC
Wind: from the N (350 degrees) at 20 MPH (17 KT) gusting to 24 MPH (21 KT):0
Visibility: 7 mile(s):0
Sky conditions: overcast
Weather: light rain
Temperature: 42 F (6 C)
Dew Point: 33 F (1 C)
Relative Humidity: 70%
Pressure (altimeter): 29.82 in. Hg (1009 hPa)
ob: KDYS 131756Z 35017G21KT 7SM -RA OVC007 OVC010 06/01 A2982 RMK AO2A SLPNO ALSTG ESTMD 60002 PNO
cycle: 18

Station Type Date Time Source
KDYS TAF 2018/12/13 19:54 UTC NOAA

TAF KDYS 1319/1423 35012G18KT 8000 -SHRA OVC015 620208 540204 QNH2980INS
TEMPO 1319/1321 35025G40KT
BECMG 1320/1321 34025G40KT 4800 -RASN OVC010 650208 540208 QNH2989INS
BECMG 1411/1412 33020G30KT 9999 NSW SCT020 BKN050 620507 520203 QNH3012INS
BECMG 1414/1415 34015G25KT 9999 FEW060 SCT100 510202 QNH3018INS
BECMG 1422/1423 33012G18KT 9999 SKC QNH3020INS TX09/1417Z TN01/1409Z


Example: see airport list